Time;durP1;ratioP1;P1;durP2;ratioP2;P2;SDS_P1;SDS_P2;PMS_P1;PMS_P2;Temp;Humidity;BMP_temperature;BMP_pressure;BME280_temperature;BME280_humidity;BME280_pressure;Samples;Min_cycle;Max_cycle;Signal;HPM_P1;HPM_P2
2022/05/17 00:05:27;;;;;;;17.00;9.27;;;15.60;99.90;;;;;;6721071;88;20228;-80
2022/05/17 00:15:27;;;;;;;13.65;9.02;;;15.30;99.90;;;;;;6712793;88;20210;-80
2022/05/17 00:25:28;;;;;;;13.48;9.30;;;15.20;99.90;;;;;;6712526;88;20247;-79
2022/05/17 00:35:29;;;;;;;18.70;9.63;;;15.10;99.90;;;;;;6711368;88;20622;-78
2022/05/17 00:45:29;;;;;;;15.45;9.15;;;15.20;99.90;;;;;;6717327;88;20209;-80
2022/05/17 00:55:44;;;;;;;16.08;9.65;;;15.40;99.90;;;;;;6733563;88;20233;-79
2022/05/17 01:05:47;;;;;;;13.32;8.00;;;15.10;99.90;;;;;;6728120;88;20614;-77
2022/05/17 01:15:47;;;;;;;12.37;7.47;;;15.00;99.90;;;;;;6711279;88;20236;-79
2022/05/17 01:25:48;;;;;;;9.63;6.80;;;14.90;99.90;;;;;;6710880;88;20741;-79
2022/05/17 01:35:48;;;;;;;9.70;6.53;;;14.70;99.90;;;;;;6718187;88;20206;-79
2022/05/17 01:45:49;;;;;;;10.05;5.95;;;14.40;99.90;;;;;;6721125;88;20181;-78
2022/05/17 01:55:50;;;;;;;9.93;6.28;;;14.50;99.90;;;;;;6724399;88;20225;-79
2022/05/17 02:05:51;;;;;;;11.30;6.57;;;14.30;99.90;;;;;;6720484;88;20209;-79
2022/05/17 02:15:51;;;;;;;10.27;5.93;;;14.20;99.90;;;;;;6720576;88;20194;-78
2022/05/17 02:25:52;;;;;;;11.45;6.60;;;14.00;99.90;;;;;;6729048;88;20228;-79
2022/05/17 02:35:52;;;;;;;12.10;6.40;;;13.90;99.90;;;;;;6730378;88;20223;-79
2022/05/17 02:45:53;;;;;;;12.48;6.75;;;13.80;99.90;;;;;;6731191;88;20189;-79
2022/05/17 02:55:54;;;;;;;13.73;7.53;;;13.70;99.90;;;;;;6730845;88;20293;-79
2022/05/17 03:05:54;;;;;;;10.27;6.40;;;13.90;99.90;;;;;;6714291;88;20236;-79
2022/05/17 03:15:55;;;;;;;7.32;4.78;;;13.60;99.90;;;;;;6714127;88;20270;-79
2022/05/17 03:25:55;;;;;;;7.50;5.05;;;13.50;99.90;;;;;;6712126;88;20274;-80
2022/05/17 03:35:56;;;;;;;9.55;6.10;;;13.40;99.90;;;;;;6716109;88;20704;-78
2022/05/17 03:45:57;;;;;;;11.15;6.87;;;13.50;99.90;;;;;;6719615;88;20207;-78
2022/05/17 03:55:58;;;;;;;11.63;7.72;;;13.40;99.90;;;;;;6713282;88;20220;-79
2022/05/17 04:06:00;;;;;;;15.10;7.68;;;13.40;99.90;;;;;;6713447;88;20316;-79
2022/05/17 04:16:01;;;;;;;12.88;8.50;;;13.50;99.90;;;;;;6721632;88;20368;-79
2022/05/17 04:26:02;;;;;;;12.80;8.13;;;13.50;99.90;;;;;;6713985;88;20232;-80
2022/05/17 04:36:03;;;;;;;11.88;7.95;;;13.60;99.90;;;;;;6716529;88;20193;-79
2022/05/17 04:46:03;;;;;;;14.35;8.15;;;13.60;99.90;;;;;;6713567;88;20202;-79
2022/05/17 04:56:05;;;;;;;13.77;8.93;;;13.60;99.90;;;;;;6731947;88;20226;-78
2022/05/17 05:06:06;;;;;;;18.05;9.27;;;13.60;99.90;;;;;;6731849;88;20727;-79
2022/05/17 05:16:14;;;;;;;12.88;8.35;;;13.80;99.90;;;;;;6729297;88;20299;-78
2022/05/17 05:26:15;;;;;;;11.75;8.57;;;14.00;99.90;;;;;;6729336;88;20193;-79
2022/05/17 05:36:16;;;;;;;11.20;6.53;;;14.30;99.90;;;;;;6729467;88;20202;-78
2022/05/17 05:46:17;;;;;;;12.93;7.50;;;14.50;99.90;;;;;;6728376;88;20193;-79
2022/05/17 05:56:17;;;;;;;14.82;9.40;;;14.80;99.90;;;;;;6728609;88;20254;-78
2022/05/17 06:06:18;;;;;;;15.02;9.38;;;14.90;99.90;;;;;;6728042;88;20222;-79
2022/05/17 06:16:18;;;;;;;12.80;8.75;;;15.20;99.90;;;;;;6727488;88;20186;-79
2022/05/17 06:26:40;;;;;;;15.90;9.38;;;15.40;99.90;;;;;;6671683;78;20263;-80
2022/05/17 06:36:40;;;;;;;15.13;9.07;;;15.70;99.90;;;;;;6640226;89;20349;-81
2022/05/17 06:46:41;;;;;;;13.30;8.35;;;16.20;99.90;;;;;;6642943;88;20202;-80
2022/05/17 06:56:41;;;;;;;10.55;7.10;;;16.70;99.90;;;;;;6641156;89;20197;-81
2022/05/17 07:06:42;;;;;;;10.93;6.47;;;17.10;99.90;;;;;;6640039;89;20211;-81
2022/05/17 07:16:43;;;;;;;12.90;6.75;;;17.50;99.90;;;;;;6635413;89;20416;-79
2022/05/17 07:26:43;;;;;;;10.18;6.00;;;17.50;99.90;;;;;;6634366;89;20209;-80
2022/05/17 07:36:45;;;;;;;11.15;6.12;;;17.90;99.90;;;;;;6639985;89;20200;-81
2022/05/17 07:46:45;;;;;;;11.73;6.40;;;18.30;99.90;;;;;;6639424;89;20209;-80
2022/05/17 07:56:46;;;;;;;12.50;7.10;;;18.90;99.90;;;;;;6635650;89;20209;-80
2022/05/17 08:06:46;;;;;;;12.60;7.30;;;18.80;99.90;;;;;;6638997;89;20212;-80
2022/05/17 08:16:47;;;;;;;12.48;7.28;;;19.50;99.90;;;;;;6641810;89;20214;-80
2022/05/17 08:37:07;;;;;;;8.40;5.30;;;19.90;99.90;;;;;;6638477;89;20542;-81
2022/05/17 08:47:16;;;;;;;11.47;5.13;;;20.50;99.90;;;;;;6636318;89;20323;-80
2022/05/17 08:57:44;;;;;;;10.73;4.65;;;21.00;99.90;;;;;;6635354;89;20983;-78
2022/05/17 09:08:12;;;;;;;9.95;3.85;;;21.60;99.90;;;;;;6635955;89;20261;-79
2022/05/17 09:18:16;;;;;;;10.60;3.90;;;21.90;99.90;;;;;;6637309;89;20198;-78
2022/05/17 09:28:22;;;;;;;7.40;3.20;;;22.70;99.90;;;;;;6637225;89;20224;-78
2022/05/17 09:38:24;;;;;;;4.12;2.08;;;23.30;99.90;;;;;;6641553;89;20761;-79
2022/05/17 09:48:32;;;;;;;5.75;2.22;;;23.50;99.90;;;;;;6645320;89;20222;-78
2022/05/17 09:58:36;;;;;;;3.28;1.50;;;24.10;99.90;;;;;;6651958;89;20613;-78
2022/05/17 10:08:45;;;;;;;5.28;1.85;;;23.90;99.90;;;;;;6651366;89;20231;-78
2022/05/17 10:18:54;;;;;;;5.28;2.33;;;23.70;99.90;;;;;;6652247;88;20195;-79
2022/05/17 10:29:36;;;;;;;5.37;2.15;;;24.00;99.90;;;;;;6650819;89;20513;-78
2022/05/17 10:39:44;;;;;;;5.28;2.05;;;24.40;99.90;;;;;;6647497;89;20358;-79
2022/05/17 10:49:52;;;;;;;3.90;1.50;;;24.70;99.90;;;;;;6652571;89;20213;-78
2022/05/17 11:00:31;;;;;;;2.92;1.10;;;24.40;98.30;;;;;;6650007;89;20251;-78
2022/05/17 11:10:51;;;;;;;2.80;1.15;;;24.50;97.60;;;;;;6616726;89;20425;-79
2022/05/17 11:21:04;;;;;;;1.85;0.70;;;24.90;96.20;;;;;;6619998;89;20196;-79
2022/05/17 11:31:08;;;;;;;2.72;1.40;;;24.60;95.20;;;;;;6619794;89;20212;-78
2022/05/17 11:41:18;;;;;;;3.78;1.00;;;24.70;96.30;;;;;;6620295;89;20180;-79
2022/05/17 11:51:21;;;;;;;3.47;1.02;;;25.10;95.80;;;;;;6634298;89;20243;-79
2022/05/17 12:01:31;;;;;;;2.33;0.90;;;26.00;92.50;;;;;;6638815;89;20625;-80
2022/05/17 12:11:53;;;;;;;2.50;0.90;;;25.80;93.00;;;;;;6637159;89;20335;-80
2022/05/17 12:22:06;;;;;;;3.43;1.00;;;27.20;91.60;;;;;;6647473;77;20199;-78
2022/05/17 12:32:10;;;;;;;6.43;0.80;;;28.10;89.20;;;;;;6654203;88;20223;-78
2022/05/17 12:52:33;;;;;;;3.17;1.00;;;29.30;84.30;;;;;;6624068;88;20193;-78
2022/05/17 13:02:42;;;;;;;4.87;1.05;;;28.20;86.10;;;;;;6635658;89;20258;-77
2022/05/17 13:12:43;;;;;;;1.83;0.82;;;27.70;88.50;;;;;;6641962;89;20303;-79
2022/05/17 13:22:44;;;;;;;5.68;1.10;;;30.00;81.50;;;;;;6643350;89;20204;-79
2022/05/17 13:32:46;;;;;;;;;;;30.80;79.90;;;;;;6633103;89;20185;-78
2022/05/17 13:42:52;;;;;;;1.70;0.80;;;30.30;77.60;;;;;;6625621;89;20179;-78
2022/05/17 13:52:59;;;;;;;3.15;1.00;;;29.60;77.80;;;;;;6634011;89;20508;-78
2022/05/17 14:03:18;;;;;;;2.35;0.90;;;30.00;75.70;;;;;;6635684;89;20223;-78
2022/05/17 14:13:26;;;;;;;2.80;1.02;;;28.10;78.10;;;;;;6624727;89;20749;-78
2022/05/17 14:23:27;;;;;;;3.03;0.93;;;27.30;80.50;;;;;;6620529;89;20917;-78
2022/05/17 14:33:28;;;;;;;1.80;1.00;;;28.20;81.20;;;;;;6625295;89;20189;-78
2022/05/17 14:43:28;;;;;;;2.42;1.20;;;29.20;78.40;;;;;;6620862;89;20177;-78
2022/05/17 14:53:29;;;;;;;3.87;1.20;;;28.20;78.10;;;;;;6622089;89;20223;-78
2022/05/17 15:03:36;;;;;;;3.27;0.90;;;28.60;78.50;;;;;;6622752;89;20240;-78
2022/05/17 15:13:36;;;;;;;2.37;0.98;;;28.70;78.20;;;;;;6624338;89;20539;-79
2022/05/17 15:23:39;;;;;;;3.72;1.02;;;30.20;75.10;;;;;;6629653;89;20242;-78
2022/05/17 15:33:39;;;;;;;;;;;29.20;75.40;;;;;;6635897;89;20193;-78
2022/05/17 15:43:40;;;;;;;2.17;1.00;;;29.20;77.60;;;;;;6633529;88;20533;-78
2022/05/17 15:53:40;;;;;;;3.15;1.20;;;29.30;76.00;;;;;;6636010;89;20184;-78
2022/05/17 16:03:54;;;;;;;3.70;1.08;;;28.60;76.50;;;;;;6626466;88;20225;-77
2022/05/17 16:13:54;;;;;;;3.00;1.08;;;29.00;76.60;;;;;;6636118;89;20256;-78
2022/05/17 16:23:55;;;;;;;3.63;1.00;;;28.70;75.30;;;;;;6635116;88;20209;-78
2022/05/17 16:33:57;;;;;;;3.17;1.20;;;28.20;76.00;;;;;;6639287;89;20217;-78
2022/05/17 16:43:58;;;;;;;6.07;1.10;;;27.10;78.60;;;;;;6634250;89;20238;-78
2022/05/17 16:53:59;;;;;;;4.93;1.50;;;26.70;79.90;;;;;;6628861;88;20201;-78
2022/05/17 17:03:59;;;;;;;3.40;1.48;;;26.30;82.00;;;;;;6629744;88;20194;-78
2022/05/17 17:14:00;;;;;;;2.90;1.30;;;26.30;82.90;;;;;;6625822;89;20285;-78
2022/05/17 17:24:02;;;;;;;5.28;1.17;;;26.10;83.00;;;;;;6630774;88;20244;-77
2022/05/17 17:44:22;;;;;;;3.80;1.30;;;25.70;85.20;;;;;;6637221;88;20213;-78
2022/05/17 17:54:22;;;;;;;5.07;1.37;;;25.60;84.90;;;;;;6643002;88;20227;-78
2022/05/17 18:04:23;;;;;;;2.35;1.20;;;25.40;86.60;;;;;;6633828;88;20202;-78
2022/05/17 18:14:24;;;;;;;2.47;1.30;;;25.20;87.30;;;;;;6661838;88;20215;-78
2022/05/17 18:24:24;;;;;;;4.20;1.30;;;25.00;89.30;;;;;;6668438;78;20229;-79
2022/05/17 18:44:44;;;;;;;2.53;1.17;;;24.50;91.90;;;;;;6661922;88;20184;-74
2022/05/17 18:54:45;;;;;;;4.18;1.30;;;24.40;93.40;;;;;;6664174;88;22729;-75
2022/05/17 19:04:46;;;;;;;2.70;1.20;;;24.20;94.90;;;;;;6654854;88;20224;-74
2022/05/17 19:14:46;;;;;;;2.85;1.25;;;23.90;96.60;;;;;;6644770;88;20332;-76
2022/05/17 19:24:47;;;;;;;2.53;1.30;;;23.60;98.10;;;;;;6643931;88;20239;-76
2022/05/17 19:34:48;;;;;;;3.67;1.60;;;23.40;99.20;;;;;;6625058;88;20246;-76
2022/05/17 19:44:49;;;;;;;5.87;1.30;;;23.10;99.90;;;;;;6642131;88;20263;-74
2022/05/17 19:54:50;;;;;;;3.10;1.35;;;22.70;99.90;;;;;;6630660;88;21170;-75
2022/05/17 20:04:51;;;;;;;2.95;1.50;;;22.50;99.90;;;;;;6629684;88;20289;-75
2022/05/17 20:14:56;;;;;;;4.87;1.52;;;22.20;99.90;;;;;;6636643;88;20299;-75
2022/05/17 20:25:00;;;;;;;3.62;1.50;;;22.20;99.90;;;;;;6657596;88;20220;-77
2022/05/17 20:35:08;;;;;;;4.95;1.40;;;22.00;99.90;;;;;;6652278;88;20177;-74
2022/05/17 20:45:12;;;;;;;4.65;1.23;;;21.90;99.90;;;;;;6646234;88;20204;-80
2022/05/17 20:55:12;;;;;;;3.17;1.40;;;21.80;99.90;;;;;;6639619;88;20236;-80
2022/05/17 21:05:13;;;;;;;2.08;1.20;;;21.70;99.90;;;;;;6627782;89;20166;-82
2022/05/17 21:15:14;;;;;;;3.45;1.20;;;21.60;99.90;;;;;;6719004;88;20391;-80
2022/05/17 21:25:17;;;;;;;2.53;1.40;;;21.60;99.90;;;;;;6655442;88;20708;-82
2022/05/17 21:35:19;;;;;;;2.83;1.20;;;21.50;99.90;;;;;;6639384;89;20333;-81
2022/05/17 21:45:19;;;;;;;4.57;1.20;;;21.50;99.90;;;;;;6638535;89;20691;-79
2022/05/17 21:55:22;;;;;;;5.70;1.50;;;21.30;99.90;;;;;;6635484;89;20294;-79
2022/05/17 22:05:23;;;;;;;4.90;1.55;;;21.20;99.90;;;;;;6642437;88;20245;-80
2022/05/17 22:15:24;;;;;;;8.60;1.75;;;21.10;99.90;;;;;;6640247;88;20552;-79
2022/05/17 22:25:28;;;;;;;3.50;1.40;;;20.90;99.90;;;;;;6715818;88;20248;-79
2022/05/17 22:35:28;;;;;;;2.87;1.63;;;20.70;99.90;;;;;;6635178;89;20213;-79
2022/05/17 22:55:48;;;;;;;4.93;1.85;;;20.50;99.90;;;;;;6642048;89;20200;-79
2022/05/17 23:05:48;;;;;;;4.25;1.90;;;20.40;99.90;;;;;;6642300;89;20869;-79
2022/05/17 23:15:49;;;;;;;7.20;2.05;;;20.30;99.90;;;;;;6641708;89;20213;-79
2022/05/17 23:36:09;;;;;;;3.95;1.80;;;20.20;99.90;;;;;;6647735;88;20216;-79
2022/05/17 23:46:09;;;;;;;8.20;2.12;;;20.20;99.90;;;;;;6726445;88;21473;-80
2022/05/17 23:56:10;;;;;;;4.37;2.00;;;20.20;99.90;;;;;;6647922;89;20204;-79
